createdAt,value
2023-05-05T00:00:02.011Z,47.91054243001994
2023-05-05T00:15:01.648Z,48.79804405110732
2023-05-05T00:30:02.295Z,48.77129313918062
2023-05-05T00:45:01.956Z,48.641068758411436
2023-05-05T01:00:01.624Z,49.659736443423284
2023-05-05T01:15:02.244Z,49.1699552567584
2023-05-05T01:30:01.905Z,50.07279341964212
2023-05-05T01:45:02.539Z,49.764377745975295
2023-05-05T02:00:02.132Z,49.81816185451951
2023-05-05T02:15:01.705Z,49.702033628237736
2023-05-05T02:30:02.466Z,49.829628756169605
2023-05-05T02:45:02.144Z,49.93514912777246
2023-05-05T03:00:01.722Z,49.949680735541925
2023-05-05T03:15:02.325Z,49.743581227276565
2023-05-05T03:30:02.026Z,50.13968995831874
2023-05-05T03:45:01.659Z,50.010294486476894
2023-05-05T04:00:02.259Z,50.17165930602279
2023-05-05T04:15:01.894Z,49.99540189859183
2023-05-05T04:30:02.001Z,49.9755271704369
2023-05-05T04:45:01.638Z,50.58987918705141
2023-05-05T05:00:02.225Z,50.87284120116555
2023-05-05T05:15:01.830Z,50.46734538222765
2023-05-05T05:30:02.486Z,50.76409082974221
2023-05-05T05:45:02.150Z,54.670255670071896
2023-05-05T06:00:02.382Z,53.19155694428698
2023-05-05T06:15:02.154Z,53.17481797609052
2023-05-05T06:30:01.804Z,53.1127463680083
2023-05-05T06:45:02.450Z,54.62314854567228
2023-05-05T07:00:02.173Z,58.380092327252704
2023-05-05T07:15:09.346Z,54.31507727655134
2023-05-05T07:30:04.038Z,53.99607712842757
2023-05-05T07:45:02.275Z,54.24855472517272
2023-05-05T08:00:01.933Z,54.57226014883918
2023-05-05T08:15:01.558Z,54.87251944979736
2023-05-05T08:30:02.267Z,55.0838392326444
2023-05-05T08:45:01.862Z,54.97688488068047
2023-05-05T09:00:02.508Z,54.696094825025035
2023-05-05T09:15:02.143Z,54.854297574156796
2023-05-05T09:30:01.808Z,54.35663939602712
2023-05-05T09:45:02.525Z,53.83858891252066
2023-05-05T10:00:02.277Z,53.47570133942384
2023-05-05T10:15:01.951Z,52.66880009673879
2023-05-05T10:30:01.622Z,52.76354677509301
2023-05-05T10:45:02.297Z,52.39880871191701
2023-05-05T11:00:02.031Z,50.963850352484855
2023-05-05T11:15:01.632Z,51.408092947729706
2023-05-05T11:30:02.409Z,49.5157484667902
2023-05-05T11:45:02.066Z,48.64759244371321
2023-05-05T12:00:01.780Z,47.31138424671229
2023-05-05T12:15:02.434Z,46.485225415570554
2023-05-05T12:30:02.192Z,46.10683206270198
2023-05-05T12:45:01.865Z,46.641293860934745
2023-05-05T13:00:02.524Z,46.36903317753062
2023-05-05T13:15:02.124Z,47.217089654566344
2023-05-05T13:30:01.802Z,47.76703438934992
2023-05-05T13:45:02.427Z,47.72620860635252
2023-05-05T14:00:02.091Z,48.5169046661281
2023-05-05T14:15:01.690Z,48.92323068262893
2023-05-05T14:30:02.338Z,48.50189102075328
2023-05-05T14:45:01.906Z,48.586674943035845
2023-05-05T15:00:02.545Z,52.20146832924944
2023-05-05T15:15:02.180Z,52.63648966916721
2023-05-05T15:30:01.886Z,53.21086200008295
2023-05-05T15:45:02.525Z,54.34845790320975
2023-05-05T16:00:02.249Z,55.335142129820966
2023-05-05T16:15:01.901Z,55.147008873067676
2023-05-05T16:30:01.559Z,55.49805642220866
2023-05-05T16:45:02.195Z,56.09637593719176
2023-05-05T17:00:01.765Z,55.58623603087071
2023-05-05T17:15:02.353Z,55.13134482518644
2023-05-05T17:30:01.959Z,55.18458752249502
2023-05-05T17:45:01.581Z,55.425210874305726
2023-05-05T18:00:02.211Z,55.355019250416184
2023-05-05T18:15:01.873Z,56.39760867883216
2023-05-05T18:30:02.533Z,56.405604863855075
2023-05-05T18:45:02.136Z,56.14114135689225
2023-05-05T19:00:01.818Z,56.91606796871935
2023-05-05T19:15:02.431Z,58.23896079653995
2023-05-05T19:30:02.164Z,57.8588335590714
2023-05-05T19:45:01.772Z,57.554881315333205
2023-05-05T20:00:02.402Z,57.95816703266335
2023-05-05T20:15:02.019Z,58.16213020292478
2023-05-05T20:30:01.677Z,57.5985945197264
2023-05-05T20:45:02.286Z,57.49062856197913
2023-05-05T21:00:01.890Z,57.573658933419516
2023-05-05T21:15:02.518Z,58.13499221798042
2023-05-05T21:30:02.174Z,57.88695070784837
2023-05-05T21:45:01.797Z,58.03479735168696
2023-05-05T22:00:02.395Z,58.268453428746966
2023-05-05T22:15:02.034Z,58.31193883251005
2023-05-05T22:30:01.704Z,58.41832080919301
2023-05-05T22:45:02.297Z,58.27691229029503
2023-05-05T23:00:01.909Z,58.68516697810888
2023-05-05T23:15:02.493Z,58.41207822890116
2023-05-05T23:30:02.118Z,58.39297239300135
2023-05-05T23:45:01.757Z,58.57839026470161
